TimeMST,TemperatureF,Dew PointF,Humidity,Sea Level PressureIn,VisibilityMPH,Wind Direction,Wind SpeedMPH,Gust SpeedMPH,PrecipitationIn,Events,Conditions,WindDirDegrees,DateUTC
12:56 AM,39.0,17.1,41,30.15,10.0,West,3.5,-,N/A,,Clear,260,2013-10-22 07:56:00
1:56 AM,37.0,18.0,46,30.16,10.0,South,3.5,-,N/A,,Clear,180,2013-10-22 08:56:00
2:56 AM,36.0,18.0,48,30.16,10.0,South,4.6,-,N/A,,Clear,170,2013-10-22 09:56:00
3:56 AM,35.1,18.0,50,30.16,10.0,Calm,Calm,-,N/A,,Clear,0,2013-10-22 10:56:00
4:56 AM,33.1,17.1,52,30.18,10.0,Calm,Calm,-,N/A,,Clear,0,2013-10-22 11:56:00
5:56 AM,30.0,16.0,56,30.23,10.0,Calm,Calm,-,N/A,,Clear,0,2013-10-22 12:56:00
6:56 AM,30.9,17.1,57,30.27,10.0,SE,4.6,-,N/A,,Clear,140,2013-10-22 13:56:00
7:56 AM,39.9,19.9,45,30.27,10.0,Calm,Calm,-,N/A,,Clear,0,2013-10-22 14:56:00
8:56 AM,48.0,19.0,32,30.26,10.0,SE,6.9,-,N/A,,Clear,130,2013-10-22 15:56:00
9:56 AM,54.0,18.0,24,30.23,10.0,ESE,6.9,-,N/A,,Clear,120,2013-10-22 16:56:00
10:56 AM,57.9,17.1,20,30.22,10.0,Calm,Calm,-,N/A,,Clear,0,2013-10-22 17:56:00
11:56 AM,62.1,15.1,16,30.18,10.0,East,5.8,-,N/A,,Clear,80,2013-10-22 18:56:00
12:56 PM,64.9,16.0,15,30.14,10.0,East,4.6,-,N/A,,Clear,80,2013-10-22 19:56:00
1:56 PM,69.1,17.1,14,30.11,10.0,NW,5.8,-,N/A,,Clear,320,2013-10-22 20:56:00
2:56 PM,69.1,18.0,14,30.09,10.0,Calm,Calm,-,N/A,,Clear,0,2013-10-22 21:56:00
3:56 PM,70.0,18.0,14,30.08,10.0,WNW,3.5,-,N/A,,Clear,300,2013-10-22 22:56:00
4:56 PM,70.0,17.1,13,30.07,10.0,NNW,4.6,-,N/A,,Clear,340,2013-10-22 23:56:00
5:56 PM,57.9,17.1,20,30.12,10.0,West,6.9,-,N/A,,Clear,280,2013-10-23 00:56:00
6:56 PM,53.1,18.0,25,30.14,10.0,WSW,5.8,-,N/A,,Clear,250,2013-10-23 01:56:00
7:56 PM,48.9,19.0,31,30.13,10.0,Calm,Calm,-,N/A,,Clear,0,2013-10-23 02:56:00
8:56 PM,50.0,19.9,31,30.12,10.0,WSW,6.9,-,N/A,,Clear,240,2013-10-23 03:56:00
9:56 PM,48.9,19.9,32,30.11,10.0,Calm,Calm,-,N/A,,Clear,0,2013-10-23 04:56:00
10:56 PM,44.1,19.0,37,30.11,10.0,Calm,Calm,-,N/A,,Clear,0,2013-10-23 05:56:00
11:56 PM,42.1,21.9,45,30.11,10.0,SSE,4.6,-,N/A,,Clear,160,2013-10-23 06:56:00